createdAt,value
2022-12-19T00:00:06.967Z,981.24
2022-12-19T00:01:06.572Z,981.20
2022-12-19T00:02:06.668Z,981.16
2022-12-19T00:03:06.668Z,981.11
2022-12-19T00:04:08.110Z,981.06
2022-12-19T00:05:06.577Z,981.10
2022-12-19T00:06:06.593Z,981.21
2022-12-19T00:07:05.932Z,981.24
2022-12-19T00:08:15.484Z,981.27
2022-12-19T00:09:05.991Z,981.27
2022-12-19T00:10:06.583Z,981.21
2022-12-19T00:11:06.085Z,981.20
2022-12-19T00:12:06.092Z,981.19
2022-12-19T00:13:07.080Z,981.20
2022-12-19T00:14:07.090Z,981.17
2022-12-19T00:15:07.090Z,981.20
2022-12-19T00:16:06.293Z,981.20
2022-12-19T00:17:07.076Z,981.19
2022-12-19T00:18:07.081Z,981.22
2022-12-19T00:19:07.072Z,981.20
2022-12-19T00:20:06.394Z,981.20
2022-12-19T00:21:06.458Z,981.19
2022-12-19T00:22:11.038Z,981.22
2022-12-19T00:23:06.497Z,981.23
2022-12-19T00:24:15.771Z,981.27
2022-12-19T00:25:06.575Z,981.25
2022-12-19T00:26:06.621Z,981.23
2022-12-19T00:27:06.654Z,981.35
2022-12-19T00:28:06.682Z,981.37
2022-12-19T00:29:11.190Z,981.41
2022-12-19T00:30:06.782Z,981.41
2022-12-19T00:31:07.636Z,981.30
2022-12-19T00:32:06.864Z,981.30
2022-12-19T00:33:07.582Z,981.27
2022-12-19T00:34:06.910Z,981.34
2022-12-19T00:35:06.975Z,981.38
2022-12-19T00:36:07.001Z,981.38
2022-12-19T00:37:07.036Z,981.41
2022-12-19T00:38:07.071Z,981.40
2022-12-19T00:39:08.420Z,981.37
2022-12-19T00:40:07.160Z,981.30
2022-12-19T00:41:08.076Z,981.30
2022-12-19T00:42:07.240Z,981.28
2022-12-19T00:43:08.073Z,981.26
2022-12-19T00:44:07.314Z,981.29
2022-12-19T00:45:08.072Z,981.33
2022-12-19T00:46:08.156Z,981.31
2022-12-19T00:47:07.430Z,981.29
2022-12-19T00:48:08.083Z,981.21
2022-12-19T00:49:07.486Z,981.20
2022-12-19T00:50:07.520Z,981.25
2022-12-19T00:51:08.085Z,981.31
2022-12-19T00:52:07.623Z,981.26
2022-12-19T00:53:07.634Z,981.31
2022-12-19T00:54:07.947Z,981.30
2022-12-19T00:55:10.723Z,981.37
2022-12-19T00:56:07.745Z,981.44
2022-12-19T00:57:07.805Z,981.44
2022-12-19T00:58:07.812Z,981.39
2022-12-19T00:59:07.877Z,981.43
2022-12-19T01:00:07.898Z,981.43
2022-12-19T01:01:08.617Z,981.45
2022-12-19T01:02:08.662Z,981.40
2022-12-19T01:03:08.627Z,981.36
2022-12-19T01:05:08.117Z,981.32
2022-12-19T01:06:08.120Z,981.24
2022-12-19T01:07:09.073Z,981.21
2022-12-19T01:08:08.193Z,981.20
2022-12-19T01:09:09.071Z,981.21
2022-12-19T01:10:08.303Z,981.17
2022-12-19T01:11:08.298Z,981.23
2022-12-19T01:12:08.355Z,981.24
2022-12-19T01:13:08.374Z,981.26
2022-12-19T01:14:09.079Z,981.27
2022-12-19T01:15:08.481Z,981.28
2022-12-19T01:16:09.118Z,981.26
2022-12-19T01:17:09.073Z,981.23
2022-12-19T01:18:09.075Z,981.21
2022-12-19T01:19:09.572Z,981.25
2022-12-19T01:20:08.668Z,981.27
2022-12-19T01:21:09.581Z,981.28
2022-12-19T01:22:09.589Z,981.26
2022-12-19T01:23:09.579Z,981.22
2022-12-19T01:24:09.571Z,981.22
2022-12-19T01:25:08.863Z,981.20
2022-12-19T01:26:08.866Z,981.19
2022-12-19T01:27:08.924Z,981.14
2022-12-19T01:28:08.976Z,981.20
2022-12-19T01:29:09.580Z,981.20
2022-12-19T01:30:09.575Z,981.19
2022-12-19T01:31:09.088Z,981.28
2022-12-19T01:32:09.163Z,981.34
2022-12-19T01:33:17.622Z,981.32
2022-12-19T01:34:09.164Z,981.31
2022-12-19T01:35:16.657Z,981.25
2022-12-19T01:36:09.267Z,981.23
2022-12-19T01:37:09.336Z,981.22
2022-12-19T01:38:09.327Z,981.23
2022-12-19T01:39:10.114Z,981.20
2022-12-19T01:40:09.388Z,981.19
2022-12-19T01:41:09.430Z,981.13
2022-12-19T01:42:09.485Z,981.12
2022-12-19T01:43:10.124Z,981.19
2022-12-19T01:44:09.546Z,981.17
2022-12-19T01:45:13.352Z,981.17
2022-12-19T01:46:10.654Z,981.24
2022-12-19T01:47:09.655Z,981.24
2022-12-19T01:48:09.696Z,981.15
2022-12-19T01:49:10.617Z,981.08
2022-12-19T01:50:09.804Z,981.18
2022-12-19T01:51:10.621Z,981.19
2022-12-19T01:52:10.653Z,981.23
2022-12-19T01:53:10.612Z,981.21
2022-12-19T01:54:09.930Z,981.24
2022-12-19T01:55:10.620Z,981.27
2022-12-19T01:56:09.987Z,981.22
2022-12-19T01:57:10.044Z,981.18
2022-12-19T01:58:10.594Z,981.12
2022-12-19T01:59:10.082Z,981.17
2022-12-19T02:00:11.093Z,981.12
2022-12-19T02:01:11.123Z,981.04
2022-12-19T02:02:10.338Z,981.13
2022-12-19T02:03:11.263Z,981.11
2022-12-19T02:04:10.259Z,981.04
2022-12-19T02:05:11.086Z,980.96
2022-12-19T02:06:11.089Z,981.03
2022-12-19T02:07:15.507Z,980.88
2022-12-19T02:08:10.420Z,980.99
2022-12-19T02:09:11.080Z,980.98
2022-12-19T02:10:10.490Z,980.93
2022-12-19T02:11:10.531Z,980.99
2022-12-19T02:12:10.602Z,981.03
2022-12-19T02:13:10.611Z,980.93
2022-12-19T02:14:10.645Z,981.00
2022-12-19T02:15:10.685Z,981.01
2022-12-19T02:16:10.771Z,980.98
2022-12-19T02:17:10.788Z,981.02
2022-12-19T02:18:11.589Z,980.98
2022-12-19T02:19:11.106Z,980.96
2022-12-19T02:20:10.880Z,980.90
2022-12-19T02:21:10.913Z,980.93
2022-12-19T02:22:16.118Z,980.92
2022-12-19T02:23:10.979Z,980.86
2022-12-19T02:24:11.603Z,980.89
2022-12-19T02:25:11.065Z,980.88
2022-12-19T02:26:12.097Z,980.84
2022-12-19T02:27:11.162Z,980.88
2022-12-19T02:28:11.178Z,980.92
2022-12-19T02:29:11.246Z,980.92
2022-12-19T02:30:11.263Z,980.91
2022-12-19T02:31:17.545Z,980.95
2022-12-19T02:32:11.395Z,980.92
2022-12-19T02:33:12.108Z,980.94
2022-12-19T02:34:12.109Z,980.92
2022-12-19T02:35:11.557Z,980.91
2022-12-19T02:36:12.093Z,980.99
2022-12-19T02:37:11.543Z,981.01
2022-12-19T02:38:12.839Z,980.99
2022-12-19T02:39:11.606Z,980.98
2022-12-19T02:40:12.596Z,980.93
2022-12-19T02:41:12.604Z,980.91
2022-12-19T02:42:11.743Z,980.87
2022-12-19T02:43:11.748Z,980.88
2022-12-19T02:44:12.603Z,980.89
2022-12-19T02:45:11.869Z,980.87
2022-12-19T02:46:12.690Z,980.92
2022-12-19T02:47:11.909Z,980.89
2022-12-19T02:48:17.618Z,980.88
2022-12-19T02:49:11.979Z,980.99
2022-12-19T02:50:12.045Z,980.96
2022-12-19T02:51:12.610Z,981.00
2022-12-19T02:52:12.107Z,980.98
2022-12-19T02:53:13.102Z,980.92
2022-12-19T02:54:12.200Z,980.90
2022-12-19T02:55:13.130Z,980.86
2022-12-19T02:56:13.113Z,980.90
2022-12-19T02:57:12.315Z,980.88
2022-12-19T02:58:12.329Z,980.88
2022-12-19T02:59:13.112Z,980.85
2022-12-19T03:00:12.409Z,980.87
2022-12-19T03:01:13.193Z,980.93
2022-12-19T03:02:12.603Z,980.87
2022-12-19T03:03:12.626Z,980.87
2022-12-19T03:04:13.112Z,980.83
2022-12-19T03:05:12.620Z,980.84
2022-12-19T03:06:12.631Z,980.85
2022-12-19T03:07:12.698Z,980.87
2022-12-19T03:08:12.715Z,980.85
2022-12-19T03:09:12.753Z,980.79
2022-12-19T03:10:13.630Z,980.78
2022-12-19T03:11:12.824Z,980.79
2022-12-19T03:12:17.298Z,980.86
2022-12-19T03:13:12.906Z,980.83
2022-12-19T03:14:13.620Z,980.83
2022-12-19T03:15:12.984Z,980.86
2022-12-19T03:16:13.040Z,980.87
2022-12-19T03:17:13.079Z,980.91
2022-12-19T03:18:13.092Z,980.95
2022-12-19T03:19:13.140Z,981.07
2022-12-19T03:20:13.175Z,981.12
2022-12-19T03:21:14.177Z,981.14
2022-12-19T03:22:13.277Z,981.01
2022-12-19T03:23:14.174Z,980.97
2022-12-19T03:24:13.348Z,980.94
2022-12-19T03:25:13.367Z,980.93
2022-12-19T03:26:14.123Z,980.87
2022-12-19T03:27:14.212Z,980.85
2022-12-19T03:28:13.503Z,980.88
2022-12-19T03:29:14.217Z,980.85
2022-12-19T03:30:13.553Z,980.86
2022-12-19T03:31:13.652Z,980.81
2022-12-19T03:32:13.661Z,980.81
2022-12-19T03:33:14.624Z,980.89
2022-12-19T03:34:14.625Z,980.87
2022-12-19T03:35:14.627Z,980.80
2022-12-19T03:36:13.781Z,980.82
2022-12-19T03:37:13.852Z,980.88
2022-12-19T03:38:13.883Z,980.84
2022-12-19T03:39:13.902Z,980.80
2022-12-19T03:40:14.619Z,980.83
2022-12-19T03:41:14.626Z,980.78
2022-12-19T03:42:14.051Z,980.86
2022-12-19T03:43:14.061Z,980.86
2022-12-19T03:44:14.627Z,980.90
2022-12-19T03:45:14.227Z,980.97
2022-12-19T03:46:14.262Z,980.99
2022-12-19T03:47:14.247Z,981.00
2022-12-19T03:48:14.246Z,981.03
2022-12-19T03:49:15.126Z,981.01
2022-12-19T03:50:14.349Z,980.97
2022-12-19T03:51:15.124Z,980.99
2022-12-19T03:52:14.405Z,981.09
2022-12-19T03:53:15.137Z,981.10
2022-12-19T03:54:14.505Z,981.07
2022-12-19T03:55:14.517Z,981.01
2022-12-19T03:56:14.551Z,981.13
2022-12-19T03:57:14.614Z,981.19
2022-12-19T03:58:33.661Z,981.13
2022-12-19T03:59:14.693Z,981.20
2022-12-19T04:00:14.707Z,981.14
2022-12-19T04:01:14.816Z,981.10
2022-12-19T04:02:15.761Z,981.07
2022-12-19T04:03:15.704Z,981.06
2022-12-19T04:04:14.885Z,981.02
2022-12-19T04:05:14.895Z,981.01
2022-12-19T04:06:14.942Z,981.03
2022-12-19T04:07:15.017Z,980.95
2022-12-19T04:08:15.009Z,980.95
2022-12-19T04:09:20.692Z,981.00
2022-12-19T04:10:15.121Z,980.93
2022-12-19T04:11:15.675Z,980.92
2022-12-19T04:12:15.195Z,980.86
2022-12-19T04:13:16.173Z,980.92
2022-12-19T04:14:15.260Z,980.93
2022-12-19T04:15:16.163Z,981.00
2022-12-19T04:16:16.199Z,980.97
2022-12-19T04:17:15.380Z,980.92
2022-12-19T04:18:16.162Z,980.98
2022-12-19T04:19:16.173Z,980.95
2022-12-19T04:20:15.497Z,981.04
2022-12-19T04:21:15.536Z,981.05
2022-12-19T04:22:16.171Z,981.06
2022-12-19T04:23:16.163Z,981.08
2022-12-19T04:24:16.172Z,981.11
2022-12-19T04:25:15.696Z,981.03
2022-12-19T04:26:16.664Z,980.99
2022-12-19T04:27:15.766Z,981.00
2022-12-19T04:28:16.664Z,981.05
2022-12-19T04:29:15.827Z,981.04
2022-12-19T04:30:15.887Z,981.09
2022-12-19T04:31:16.698Z,981.05
2022-12-19T04:32:15.971Z,981.04
2022-12-19T04:33:16.696Z,981.07
2022-12-19T04:34:16.674Z,981.03
2022-12-19T04:35:16.037Z,981.13
2022-12-19T04:36:16.075Z,981.13
2022-12-19T04:37:16.155Z,981.15
2022-12-19T04:38:16.680Z,981.21
2022-12-19T04:39:17.172Z,981.26
2022-12-19T04:40:16.297Z,981.20
2022-12-19T04:41:17.174Z,981.22
2022-12-19T04:42:17.167Z,981.22
2022-12-19T04:43:16.372Z,981.20
2022-12-19T04:44:17.165Z,981.23
2022-12-19T04:45:17.164Z,981.20
2022-12-19T04:46:16.535Z,981.25
2022-12-19T04:47:17.174Z,981.20
2022-12-19T04:48:16.569Z,981.18
2022-12-19T04:49:17.172Z,981.21
2022-12-19T04:50:17.167Z,981.15
2022-12-19T04:51:16.665Z,981.15
2022-12-19T04:52:16.724Z,981.14
2022-12-19T04:53:16.749Z,981.20
2022-12-19T04:54:17.666Z,981.15
2022-12-19T04:55:17.667Z,981.14
2022-12-19T04:56:16.854Z,981.19
2022-12-19T04:57:16.933Z,981.09
2022-12-19T04:58:21.643Z,981.07
2022-12-19T04:59:16.961Z,981.06
2022-12-19T05:00:17.005Z,981.04
2022-12-19T05:01:17.127Z,981.05
2022-12-19T05:02:17.216Z,981.03
2022-12-19T05:03:17.190Z,981.04
2022-12-19T05:04:17.163Z,980.99
2022-12-19T05:05:17.200Z,981.02
2022-12-19T05:06:17.264Z,981.02
2022-12-19T05:07:18.169Z,981.02
2022-12-19T05:08:18.169Z,981.02
2022-12-19T05:09:18.176Z,981.02
2022-12-19T05:10:18.171Z,980.95
2022-12-19T05:11:19.789Z,980.97
2022-12-19T05:12:17.503Z,980.96
2022-12-19T05:13:18.183Z,980.97
2022-12-19T05:14:18.169Z,980.88
2022-12-19T05:15:18.163Z,980.82
2022-12-19T05:16:18.257Z,980.86
2022-12-19T05:17:17.692Z,980.91
2022-12-19T05:18:18.677Z,980.88
2022-12-19T05:19:17.764Z,980.85
2022-12-19T05:20:17.782Z,980.87
2022-12-19T05:21:18.662Z,980.91
2022-12-19T05:22:18.676Z,980.91
2022-12-19T05:23:18.662Z,980.82
2022-12-19T05:24:17.969Z,980.88
2022-12-19T05:25:18.681Z,980.83
2022-12-19T05:26:18.680Z,980.79
2022-12-19T05:27:18.677Z,980.85
2022-12-19T05:28:18.083Z,980.85
2022-12-19T05:29:18.192Z,980.81
2022-12-19T05:30:18.168Z,980.81
2022-12-19T05:31:18.231Z,980.79
2022-12-19T05:32:18.233Z,980.79
2022-12-19T05:33:18.290Z,980.81
2022-12-19T05:34:18.334Z,980.81
2022-12-19T05:35:18.377Z,980.74
2022-12-19T05:36:19.158Z,980.70
2022-12-19T05:37:19.160Z,980.69
2022-12-19T05:38:18.495Z,980.63
2022-12-19T05:39:19.176Z,980.67
2022-12-19T05:40:18.550Z,980.66
2022-12-19T05:41:19.178Z,980.66
2022-12-19T05:42:19.166Z,980.68
2022-12-19T05:43:18.697Z,980.64
2022-12-19T05:44:19.657Z,980.65
2022-12-19T05:45:18.763Z,980.61
2022-12-19T05:46:19.679Z,980.58
2022-12-19T05:47:19.680Z,980.68
2022-12-19T05:48:18.848Z,980.63
2022-12-19T05:49:18.929Z,980.65
2022-12-19T05:50:18.941Z,980.63
2022-12-19T05:51:18.990Z,980.66
2022-12-19T05:52:19.013Z,980.72
2022-12-19T05:53:23.313Z,980.66
2022-12-19T05:54:19.110Z,980.69
2022-12-19T05:55:19.119Z,980.69
2022-12-19T05:56:19.187Z,980.62
2022-12-19T05:57:19.208Z,980.64
2022-12-19T05:58:19.249Z,980.60
2022-12-19T05:59:19.276Z,980.68
2022-12-19T06:00:19.346Z,980.70
2022-12-19T06:01:19.393Z,980.67
2022-12-19T06:02:19.498Z,980.65
2022-12-19T06:03:20.243Z,980.67
2022-12-19T06:04:19.496Z,980.71
2022-12-19T06:05:19.516Z,980.73
2022-12-19T06:06:19.595Z,980.74
2022-12-19T06:07:21.367Z,980.68
2022-12-19T06:08:19.624Z,980.64
2022-12-19T06:09:20.666Z,980.60
2022-12-19T06:10:19.704Z,980.58
2022-12-19T06:11:19.775Z,980.54
2022-12-19T06:12:19.782Z,980.47
2022-12-19T06:13:24.819Z,980.43
2022-12-19T06:14:19.865Z,980.42
2022-12-19T06:15:19.900Z,980.48
2022-12-19T06:16:20.013Z,980.48
2022-12-19T06:17:20.671Z,980.51
2022-12-19T06:18:20.046Z,980.53
2022-12-19T06:19:20.061Z,980.54
2022-12-19T06:20:20.107Z,980.49
2022-12-19T06:21:20.143Z,980.46
2022-12-19T06:22:20.175Z,980.46
2022-12-19T06:23:20.247Z,980.52
2022-12-19T06:24:20.256Z,980.56
2022-12-19T06:25:20.288Z,980.55
2022-12-19T06:26:20.616Z,980.52
2022-12-19T06:27:20.391Z,980.47
2022-12-19T06:28:20.404Z,980.45
2022-12-19T06:29:20.440Z,980.44
2022-12-19T06:30:20.520Z,980.45
2022-12-19T06:31:20.601Z,980.37
2022-12-19T06:32:20.580Z,980.39
2022-12-19T06:33:20.603Z,980.33
2022-12-19T06:34:47.012Z,980.37
2022-12-19T06:35:20.684Z,980.37
2022-12-19T06:36:20.722Z,980.33
2022-12-19T06:37:20.756Z,980.34
2022-12-19T06:38:21.663Z,980.22
2022-12-19T06:39:20.872Z,980.30
2022-12-19T06:40:20.894Z,980.31
2022-12-19T06:41:20.935Z,980.36
2022-12-19T06:42:21.658Z,980.41
2022-12-19T06:43:21.679Z,980.34
2022-12-19T06:44:21.056Z,980.35
2022-12-19T06:45:21.091Z,980.39
2022-12-19T06:46:21.655Z,980.39
2022-12-19T06:47:21.149Z,980.41
2022-12-19T06:48:21.182Z,980.40
2022-12-19T06:49:21.245Z,980.42
2022-12-19T06:50:21.286Z,980.33
2022-12-19T06:51:21.310Z,980.39
2022-12-19T06:52:21.382Z,980.41
2022-12-19T06:53:21.376Z,980.40
2022-12-19T06:54:21.419Z,980.41
2022-12-19T06:55:21.464Z,980.43
2022-12-19T06:56:21.498Z,980.42
2022-12-19T06:57:21.568Z,980.40
2022-12-19T06:58:24.221Z,980.35
2022-12-19T06:59:21.619Z,980.32
2022-12-19T08:13:46.242Z,980.29
2022-12-19T08:14:31.584Z,980.26
2022-12-19T08:15:31.643Z,980.21
2022-12-19T08:16:37.297Z,980.23
2022-12-19T08:17:31.737Z,980.22
2022-12-19T08:18:31.767Z,980.22
2022-12-19T08:19:32.698Z,980.23
2022-12-19T08:20:31.812Z,980.26
2022-12-19T08:21:31.864Z,980.30
2022-12-19T08:22:31.950Z,980.29
2022-12-19T08:23:31.962Z,980.31
2022-12-19T08:24:32.027Z,980.31
2022-12-19T08:25:32.019Z,980.30
2022-12-19T08:26:38.421Z,980.36
2022-12-19T08:27:32.090Z,980.39
2022-12-19T08:28:32.125Z,980.43
2022-12-19T08:29:32.204Z,980.44
2022-12-19T08:30:33.940Z,980.44
2022-12-19T08:31:33.203Z,980.42
2022-12-19T08:32:32.286Z,980.41
2022-12-19T08:33:32.332Z,980.39
2022-12-19T08:34:32.402Z,980.28
2022-12-19T08:35:35.194Z,980.31
2022-12-19T08:36:32.451Z,980.32
2022-12-19T08:37:33.197Z,980.30
2022-12-19T08:38:32.527Z,980.33
2022-12-19T08:39:32.593Z,980.35
2022-12-19T08:40:32.602Z,980.38
2022-12-19T08:41:32.657Z,980.43
2022-12-19T08:42:32.727Z,980.50
2022-12-19T08:43:33.696Z,980.44
2022-12-19T08:44:32.779Z,980.49
2022-12-19T08:45:33.698Z,980.46
2022-12-19T08:46:32.872Z,980.47
2022-12-19T08:47:32.932Z,980.41
2022-12-19T08:48:32.929Z,980.43
2022-12-19T08:49:33.704Z,980.40
2022-12-19T08:50:33.708Z,980.39
2022-12-19T08:51:33.058Z,980.46
2022-12-19T08:52:33.115Z,980.45
2022-12-19T08:53:33.163Z,980.47
2022-12-19T08:54:33.709Z,980.46
2022-12-19T08:55:34.208Z,980.47
2022-12-19T08:56:33.263Z,980.45
2022-12-19T08:57:33.302Z,980.44
2022-12-19T08:58:33.387Z,980.48
2022-12-19T08:59:33.381Z,980.42
2022-12-19T09:00:34.211Z,980.41
2022-12-19T09:01:34.355Z,980.38
2022-12-19T09:02:33.660Z,980.36
2022-12-19T09:03:44.943Z,980.34
2022-12-19T09:05:17.252Z,980.31
2022-12-19T09:06:05.394Z,980.36
2022-12-19T09:06:33.739Z,980.41
2022-12-19T09:07:33.715Z,980.41
2022-12-19T09:08:34.708Z,980.46
2022-12-19T09:09:34.721Z,980.54
2022-12-19T09:10:36.703Z,980.58
2022-12-19T09:11:33.914Z,980.61
2022-12-19T09:12:34.707Z,980.61
2022-12-19T09:13:34.706Z,980.59
2022-12-19T09:14:34.716Z,980.57
2022-12-19T09:15:34.701Z,980.51
2022-12-19T09:16:34.151Z,980.46
2022-12-19T09:17:34.148Z,980.41
2022-12-19T09:18:34.711Z,980.43
2022-12-19T09:19:35.219Z,980.40
2022-12-19T09:20:34.282Z,980.42
2022-12-19T09:21:35.199Z,980.45
2022-12-19T09:22:34.356Z,980.45
2022-12-19T09:23:34.384Z,980.46
2022-12-19T09:24:35.202Z,980.46
2022-12-19T09:25:35.202Z,980.51
2022-12-19T09:26:35.218Z,980.51
2022-12-19T09:28:01.371Z,980.54
2022-12-19T09:28:34.596Z,980.55
2022-12-19T09:29:35.768Z,980.53
2022-12-19T09:30:34.719Z,980.59
2022-12-19T09:31:35.703Z,980.56
2022-12-19T09:32:34.755Z,980.57
2022-12-19T09:33:41.245Z,980.56
2022-12-19T09:34:37.448Z,980.51
2022-12-19T09:35:34.920Z,980.44
2022-12-19T09:36:34.936Z,980.43
2022-12-19T09:37:34.996Z,980.41
2022-12-19T09:38:38.049Z,980.41
2022-12-19T09:39:35.723Z,980.35
2022-12-19T09:40:35.136Z,980.37
2022-12-19T09:41:35.138Z,980.38
2022-12-19T09:42:40.696Z,980.41
2022-12-19T09:43:41.096Z,980.44
2022-12-19T09:44:35.309Z,980.48
2022-12-19T09:45:35.354Z,980.51
2022-12-19T10:31:41.038Z,980.35
2022-12-19T10:32:41.791Z,980.35
2022-12-19T10:33:41.035Z,980.38
2022-12-19T10:34:41.432Z,980.35
2022-12-19T10:35:41.080Z,980.34
2022-12-19T10:37:25.332Z,980.32
2022-12-19T10:37:48.924Z,980.33
2022-12-19T10:38:48.770Z,980.37
2022-12-19T10:39:41.282Z,980.33
2022-12-19T10:40:41.291Z,980.32
2022-12-19T10:41:44.300Z,980.30
2022-12-19T11:00:45.509Z,980.23
2022-12-19T11:01:33.675Z,980.19
2022-12-19T11:02:33.679Z,980.13
2022-12-19T12:31:44.722Z,979.54
2022-12-19T12:31:48.874Z,979.50
2022-12-19T12:35:33.275Z,979.47
2022-12-19T12:35:34.263Z,979.46
2022-12-19T12:35:46.567Z,979.52
2022-12-19T12:35:57.124Z,979.51
2022-12-19T12:39:56.224Z,979.45
2022-12-19T12:40:56.237Z,979.44
2022-12-19T12:41:56.290Z,979.42
2022-12-19T12:42:57.015Z,979.46
2022-12-19T12:43:56.369Z,979.49
2022-12-19T12:44:56.450Z,979.46
2022-12-19T12:45:56.548Z,979.43
2022-12-19T12:46:56.494Z,979.36
2022-12-19T12:47:56.551Z,979.35
2022-12-19T13:03:10.276Z,979.42
2022-12-19T13:04:10.173Z,979.42
2022-12-19T13:05:10.215Z,979.39
2022-12-19T13:06:10.248Z,979.36
2022-12-19T13:07:10.292Z,979.36
2022-12-19T13:08:10.361Z,979.30
2022-12-19T13:09:10.432Z,979.25
2022-12-19T13:10:10.445Z,979.17
2022-12-19T13:11:10.473Z,979.17
2022-12-19T13:12:10.523Z,979.16
2022-12-19T13:13:14.601Z,979.18
2022-12-19T13:14:10.914Z,979.18
2022-12-19T13:15:10.632Z,979.18
2022-12-19T13:25:29.532Z,979.27
2022-12-19T13:26:29.489Z,979.30
2022-12-19T13:27:30.467Z,979.29
2022-12-19T13:28:29.586Z,979.22
2022-12-19T13:29:29.622Z,979.23
2022-12-19T13:30:29.710Z,979.28
2022-12-19T13:31:29.770Z,979.26
2022-12-19T13:32:29.755Z,979.21
2022-12-19T13:33:29.790Z,979.20
2022-12-19T13:34:29.836Z,979.22
2022-12-19T13:36:43.099Z,979.20
2022-12-19T13:39:50.712Z,979.22
2022-12-19T13:39:56.404Z,979.18
2022-12-19T13:39:56.783Z,979.21
2022-12-19T13:39:57.112Z,979.21
2022-12-19T13:40:32.679Z,979.23
2022-12-19T13:43:16.396Z,979.19
2022-12-19T13:44:16.410Z,979.23
2022-12-19T13:45:16.487Z,979.22
2022-12-19T13:46:16.556Z,979.23
2022-12-19T13:47:21.945Z,979.24
2022-12-19T13:48:16.607Z,979.18
2022-12-19T13:49:16.679Z,979.15
2022-12-19T13:50:17.472Z,979.10
2022-12-19T13:51:16.706Z,979.07
2022-12-19T13:52:16.745Z,979.04
2022-12-19T13:53:16.800Z,979.03
2022-12-19T13:54:16.897Z,979.05
2022-12-19T13:55:16.885Z,979.08
2022-12-19T13:56:16.968Z,979.02
2022-12-19T13:57:16.992Z,979.02
2022-12-19T13:58:17.011Z,979.03
2022-12-19T13:59:17.142Z,979.05
2022-12-19T14:00:17.099Z,979.08
2022-12-19T14:01:21.552Z,979.09
2022-12-19T14:02:17.341Z,979.06
2022-12-19T14:03:17.532Z,979.11
2022-12-19T14:04:17.363Z,979.09
2022-12-19T14:05:17.303Z,979.08
2022-12-19T14:06:19.626Z,979.09
2022-12-19T14:07:17.411Z,979.08
2022-12-19T14:08:17.434Z,979.10
2022-12-19T14:10:02.926Z,979.12
2022-12-19T14:11:31.675Z,979.09
2022-12-19T14:11:42.881Z,979.11
2022-12-19T14:13:51.462Z,979.12
2022-12-19T14:13:59.481Z,979.11
2022-12-19T14:14:22.082Z,979.08
2022-12-19T14:15:17.774Z,979.13
2022-12-19T14:16:17.887Z,979.12
2022-12-19T14:17:17.834Z,979.16
2022-12-19T14:18:43.064Z,979.19
2022-12-19T14:19:18.473Z,979.23
2022-12-19T14:22:01.692Z,979.22
2022-12-19T14:22:07.403Z,979.22
2022-12-19T14:22:25.215Z,979.24
2022-12-19T14:23:20.477Z,979.23
2022-12-19T14:24:18.137Z,979.24
2022-12-19T14:28:15.196Z,979.24
2022-12-19T14:28:18.784Z,979.24
2022-12-19T14:28:27.947Z,979.22
2022-12-19T14:28:29.557Z,979.25
2022-12-19T14:29:18.385Z,979.24
2022-12-19T14:30:30.951Z,979.26
2022-12-19T14:31:18.524Z,979.18
2022-12-19T14:33:39.227Z,979.18
2022-12-19T14:33:44.256Z,979.18
2022-12-19T14:35:04.022Z,979.16
2022-12-19T14:36:07.810Z,979.17
2022-12-19T14:36:25.568Z,979.18
2022-12-19T14:37:54.330Z,979.13
2022-12-19T14:39:20.322Z,979.22
2022-12-19T14:39:25.206Z,979.20
2022-12-19T14:40:18.830Z,979.20
2022-12-19T14:41:18.864Z,979.21
2022-12-19T14:42:18.939Z,979.27
2022-12-19T14:49:58.008Z,979.26
2022-12-19T14:52:25.320Z,979.32
2022-12-19T14:52:34.687Z,979.34
2022-12-19T14:53:51.255Z,979.30
2022-12-19T14:54:02.054Z,979.27
2022-12-19T14:54:03.652Z,979.34
2022-12-19T14:54:04.065Z,979.33
2022-12-19T14:54:08.840Z,979.32
2022-12-19T14:54:15.326Z,979.32
2022-12-19T14:54:40.849Z,979.33
2022-12-19T14:54:48.291Z,979.33
2022-12-19T14:56:12.271Z,979.34
2022-12-19T14:56:40.285Z,979.31
2022-12-19T14:57:50.662Z,979.31
2022-12-19T14:58:52.801Z,979.30
2022-12-19T14:59:19.708Z,979.34
2022-12-19T15:01:07.854Z,979.31
2022-12-19T15:01:23.190Z,979.28
2022-12-19T15:02:27.938Z,979.30
2022-12-19T15:03:20.078Z,979.32
2022-12-19T15:04:50.609Z,979.32
2022-12-19T15:05:19.922Z,979.30
2022-12-19T15:07:07.695Z,979.27
2022-12-19T15:07:20.056Z,979.27
2022-12-19T16:31:19.714Z,978.99
2022-12-19T16:32:19.659Z,979.04
2022-12-19T16:33:19.830Z,979.06
2022-12-19T16:34:19.738Z,979.06
2022-12-19T16:35:34.374Z,979.03
2022-12-19T16:36:19.818Z,978.97
2022-12-19T16:37:20.489Z,978.99
2022-12-19T16:38:19.875Z,979.06
2022-12-19T16:39:19.967Z,979.07
2022-12-19T16:40:19.964Z,979.05
2022-12-19T16:41:19.995Z,979.08
2022-12-19T16:42:20.044Z,979.11
2022-12-19T16:43:20.932Z,979.10
2022-12-19T16:44:20.161Z,979.02
2022-12-19T16:45:20.164Z,979.00
2022-12-19T16:46:20.293Z,979.01
2022-12-19T16:47:21.000Z,979.08
2022-12-19T16:48:20.264Z,979.13
2022-12-19T16:49:20.337Z,979.18
2022-12-19T16:50:20.364Z,979.15
2022-12-19T16:51:20.406Z,979.13
2022-12-19T16:52:20.471Z,979.10
2022-12-19T16:53:20.473Z,979.05
2022-12-19T16:54:20.499Z,979.13
2022-12-19T16:55:20.551Z,979.23
2022-12-19T16:56:20.577Z,979.21
2022-12-19T16:57:20.658Z,979.16
2022-12-19T16:58:20.679Z,979.09
2022-12-19T16:59:20.704Z,979.07
2022-12-19T17:00:20.740Z,979.17
2022-12-19T17:01:20.888Z,979.20
2022-12-19T17:02:20.967Z,979.12
2022-12-19T17:03:21.038Z,979.15
2022-12-19T17:04:20.899Z,979.15
2022-12-19T17:05:21.436Z,979.07
2022-12-19T17:08:44.121Z,979.03
2022-12-19T17:09:44.084Z,979.03
2022-12-19T17:10:44.126Z,979.03
2022-12-19T17:11:44.165Z,979.00
2022-12-19T17:15:17.300Z,978.97
2022-12-19T17:16:18.151Z,978.96
2022-12-19T17:19:51.775Z,978.92
2022-12-19T17:20:51.810Z,978.91
2022-12-19T18:34:07.191Z,978.56
2022-12-19T18:35:01.315Z,978.57
2022-12-19T18:36:00.696Z,978.57
2022-12-19T18:37:00.706Z,978.55
2022-12-19T18:38:00.750Z,978.57
2022-12-19T18:39:01.303Z,978.61
2022-12-19T18:40:00.837Z,978.60
2022-12-19T18:41:01.809Z,978.64
2022-12-19T18:42:00.905Z,978.65
2022-12-19T18:43:01.806Z,978.59
2022-12-19T18:44:00.959Z,978.59
2022-12-19T18:45:01.030Z,978.59
2022-12-19T18:46:01.091Z,978.56
2022-12-19T18:47:01.081Z,978.55
2022-12-19T18:48:01.819Z,978.54
2022-12-19T18:49:01.196Z,978.49
2022-12-19T19:00:39.640Z,978.46
2022-12-19T19:01:40.399Z,978.43
2022-12-19T19:02:39.897Z,978.42
2022-12-19T19:03:39.853Z,978.43
2022-12-19T19:04:39.758Z,978.41
2022-12-19T19:05:39.819Z,978.39
2022-12-19T19:06:43.604Z,978.45
2022-12-19T19:07:39.895Z,978.48
2022-12-19T19:08:39.942Z,978.51
2022-12-19T19:09:40.018Z,978.50
2022-12-19T19:10:39.996Z,978.53
2022-12-19T19:11:40.829Z,978.57
2022-12-19T19:12:40.100Z,978.63
2022-12-19T19:13:40.101Z,978.63
2022-12-19T19:14:40.214Z,978.62
2022-12-19T19:15:40.217Z,978.65
2022-12-19T19:16:40.463Z,978.63
2022-12-19T19:17:40.256Z,978.59
2022-12-19T19:18:40.320Z,978.56
2022-12-19T19:19:40.359Z,978.59
2022-12-19T19:20:41.328Z,978.58
2022-12-19T19:21:40.417Z,978.57
2022-12-19T19:22:40.471Z,978.52
2022-12-19T19:23:40.495Z,978.56
2022-12-19T19:24:40.573Z,978.55
2022-12-19T19:25:40.580Z,978.56
2022-12-19T19:26:40.636Z,978.56
2022-12-19T19:27:40.655Z,978.53
2022-12-19T19:28:40.703Z,978.48
2022-12-19T19:29:40.760Z,978.50
2022-12-19T19:30:40.864Z,978.49
2022-12-19T19:31:40.863Z,978.53
2022-12-19T19:32:40.846Z,978.48
2022-12-19T19:33:41.858Z,978.49
2022-12-19T19:34:40.955Z,978.47
2022-12-19T19:35:41.001Z,978.51